PH-0078 weather

Lieutenant Cesar Base Air Base Heliport
Floridablanca, Philippines

Public forecast

Using degrees Celsius for public forecast. Weather courtesy of forecast.io.

METAR (pilot weather report)

Closest report is Diosdado Macapagal International Airport, 12.9 nm (23.8 km) NNE. Retrieved 2019/07/23 18:00 UTC (54 minutes ago):

RPLC 231800Z 25006KT 7000 FEW020 BKN300 25/24 Q1008 NOSIG RMK A2977

TAF (pilot weather forecast)

Closest forecast is Diosdado Macapagal International Airport, 12.9 nm (23.8 km) NNE. Retrieved 2019/07/23 18:00 UTC (54 minutes ago):

TAF RPLC 231700Z 2318/2424 25008KT 7000 SCT020 BKN300 TX34/2406Z TN25/2321Z TEMPO 2318/2324 30008KT 6000 -TSRA FEW015CB SCT020 BKN100